Latest Weather Observations for Karratha

IDW60801

Issued at 7:03 pm WST Tuesday 22 August 2017 (issued every 30 minutes, with the page automatically refreshed every 10 minutes)

About weather observations | Map of weather stations | Latest weather observations for WA | Other Formats
Station Details ID: 004083 Name: KARRATHA AERO Lat: -20.71 Lon: 116.77 Height: 5.3 m
Data from the previous 72 hours. | See also: Recent months at Karratha
Date/Time
WST
Temp
°C
App
Temp
°C
Dew
Point
°C
Rel
Hum
%
Delta-T
°C
Wind Press
QNH
hPa
Press
MSL
hPa
Rain since
9am
mm
Dir  Spd
km/h
Gust
km/h
Spd
kts
Gust
kts
22/07:00pm 25.0 24.0 18.0 65 4.4 WNW 20 26 11 14 1015.4 1015.4 0.0
22/06:30pm 25.0 24.3 18.7 68 4.0 W 20 24 11 13 1015.0 1015.0 0.0
22/06:00pm 25.7 24.7 18.9 66 4.3 W 22 26 12 14 1014.7 1014.7 0.0
22/05:30pm 26.1 25.6 19.2 65 4.4 W 20 24 11 13 1014.4 1014.4 0.0
22/05:00pm 26.9 25.8 19.5 64 4.8 W 24 28 13 15 1014.2 1014.2 0.0
22/04:30pm 27.9 26.0 17.7 53 6.4 W 24 26 13 14 1013.9 1013.9 0.0
22/04:00pm 28.8 27.5 17.3 49 7.2 W 20 24 11 13 1013.9 1013.9 0.0
22/03:30pm 28.9 27.7 17.1 49 7.4 WNW 19 24 10 13 1013.9 1013.9 0.0
22/03:00pm 29.8 28.8 17.6 48 7.7 WNW 19 24 10 13 1014.1 1014.1 0.0
22/02:30pm 29.9 29.4 17.7 48 7.8 NW 17 20 9 11 1014.3 1014.3 0.0
22/02:00pm 30.1 29.9 17.5 46 8.0 NNW 15 20 8 11 1014.4 1014.4 0.0
22/01:30pm 30.1 30.4 17.9 48 7.8 NNW 13 15 7 8 1014.7 1014.7 0.0
22/01:00pm 30.1 30.7 16.9 45 8.3 N 9 15 5 8 1015.0 1015.0 0.0
22/12:30pm 29.7 29.8 15.4 42 8.8 NW 9 15 5 8 1015.5 1015.5 0.0
22/12:00pm 29.1 29.6 16.6 46 7.8 N 9 15 5 8 1015.9 1015.9 0.0
22/11:30am 28.4 29.8 17.9 53 6.7 NNW 7 11 4 6 1016.2 1016.2 0.0
22/11:00am 27.2 27.8 17.7 56 6.0 NNW 11 17 6 9 1016.6 1016.6 0.0
22/10:30am 27.2 27.4 17.7 56 6.0 WNW 13 17 7 9 1016.7 1016.7 0.0
22/10:00am 26.2 27.3 18.1 61 5.1 W 9 13 5 7 1016.9 1016.9 0.0
22/09:30am 25.8 27.4 19.2 67 4.2 W 9 15 5 8 1016.7 1016.7 0.0
22/09:00am 24.9 26.2 18.4 67 4.1 WSW 9 13 5 7 1016.5 1016.5 0.0
22/08:30am 23.1 25.1 19.1 78 2.5 SSW 7 13 4 7 1016.3 1016.3 0.0
22/08:00am 21.5 22.6 18.1 81 2.1 S 9 11 5 6 1016.1 1016.1 0.0
22/07:30am 19.5 20.2 17.1 86 1.5 S 9 13 5 7 1015.8 1015.8 0.0
22/07:00am 17.5 17.8 16.0 91 0.9 SSE 9 11 5 6 1015.4 1015.4 0.0
22/06:30am 16.8 16.8 15.3 91 0.9 S 9 11 5 6 1015.3 1015.3 0.0
22/06:00am 17.1 17.3 15.8 92 0.8 S 9 11 5 6 1015.0 1015.0 0.0
22/05:30am 17.3 16.4 15.8 91 0.9 S 15 15 8 8 1014.8 1014.8 0.0
22/05:00am 17.4 17.3 15.9 91 0.9 S 11 13 6 7 1014.4 1014.4 0.0
22/04:30am 17.2 17.7 15.5 90 1.0 S 7 11 4 6 1014.5 1014.5 0.0
22/04:00am 17.3 17.4 15.6 90 1.0 S 9 11 5 6 1014.4 1014.4 0.0
22/03:30am 17.3 17.0 15.5 89 1.1 S 11 13 6 7 1014.5 1014.5 0.0
22/03:00am 17.9 18.2 16.1 89 1.1 SSW 9 13 5 7 1014.6 1014.6 0.0
22/02:30am 18.4 19.4 16.9 91 0.9 SSW 7 9 4 5 1014.7 1014.7 0.0
22/02:00am 19.1 19.6 17.4 90 1.0 SW 11 13 6 7 1014.8 1014.8 0.0
22/01:30am 19.5 19.6 17.5 88 1.2 SW 13 13 7 7 1014.8 1014.8 0.0
22/01:00am 19.8 20.3 17.4 86 1.5 SW 11 15 6 8 1015.0 1015.0 0.0
22/12:30am 19.8 19.7 17.0 84 1.7 SW 13 15 7 8 1015.3 1015.3 0.0
22/12:00am 19.3 19.3 16.3 83 1.8 SW 11 13 6 7 1015.6 1015.6 0.0
 
Date/Time
WST
Temp
°C
App
Temp
°C
Dew
Point
°C
Rel
Hum
%
Delta-T
°C
Wind Press
QNH
hPa
Press
MSL
hPa
Rain since
9am
mm
Dir  Spd
km/h
Gust
km/h
Spd
kts
Gust
kts
21/11:30pm 19.9 20.3 16.3 80 2.2 SW 9 11 5 6 1015.6 1015.6 0.0
21/11:00pm 20.6 20.4 16.6 78 2.4 SW 13 15 7 8 1015.9 1015.9 0.0
21/10:30pm 22.9 23.4 18.4 76 2.8 W 13 13 7 7 1015.8 1015.8 0.0
21/10:00pm 22.7 24.0 18.5 77 2.6 WNW 9 11 5 6 1015.9 1015.9 0.0
21/09:30pm 22.9 24.5 18.2 75 2.9 WNW 7 9 4 5 1016.0 1016.0 0.0
21/09:00pm 23.1 24.8 18.0 73 3.2 NNW 6 11 3 6 1015.8 1015.8 0.0
21/08:30pm 23.3 24.2 17.5 70 3.6 NNW 9 13 5 7 1015.7 1015.7 0.0
21/08:00pm 22.8 23.1 14.9 61 4.7 N 7 11 4 6 1015.3 1015.3 0.0
21/07:30pm 23.1 22.4 13.3 54 5.7 NNE 9 11 5 6 1015.2 1015.2 0.0
21/07:00pm 23.7 22.8 12.7 50 6.3 NNE 9 13 5 7 1014.9 1014.9 0.0
21/06:30pm 24.2 23.7 14.9 56 5.5 N 11 15 6 8 1014.6 1014.6 0.0
21/06:00pm 24.2 24.6 16.2 61 4.9 N 9 11 5 6 1014.1 1014.1 0.0
21/05:30pm 25.2 24.0 14.0 49 6.6 NNE 13 17 7 9 1013.8 1013.8 0.0
21/05:00pm 27.4 23.3 6.2 26 11.1 NE 17 20 9 11 1013.4 1013.4 0.0
21/04:30pm 27.4 22.7 5.1 24 11.4 NE 19 20 10 11 1013.3 1013.3 0.0
21/04:00pm 27.3 23.1 5.6 25 11.2 NNE 17 20 9 11 1013.3 1013.3 0.0
21/03:30pm 27.0 23.2 7.5 29 10.4 NNE 17 24 9 13 1013.2 1013.2 0.0
21/03:00pm 26.9 22.8 7.9 30 10.2 NE 19 24 10 13 1013.3 1013.3 0.0
21/02:30pm 27.3 23.3 8.2 30 10.3 NE 19 26 10 14 1013.4 1013.4 0.0
21/02:00pm 27.8 23.3 8.6 30 10.5 NE 22 28 12 15 1013.5 1013.5 0.0
21/01:30pm 26.8 21.6 7.3 29 10.4 NE 24 28 13 15 1013.8 1013.8 0.0
21/01:00pm 26.4 21.0 7.9 31 9.9 NE 26 32 14 17 1014.2 1014.2 0.0
21/12:30pm 26.7 21.4 8.6 32 9.8 NE 26 32 14 17 1014.5 1014.5 0.0
21/12:00pm 26.4 20.9 7.4 30 10.1 NE 26 32 14 17 1014.8 1014.8 0.0
21/11:30am 26.4 20.6 7.9 31 9.9 NE 28 35 15 19 1015.1 1015.1 0.0
21/11:00am 26.9 19.9 5.8 26 10.9 ENE 32 37 17 20 1015.4 1015.4 0.0
21/10:30am 26.4 19.5 6.4 28 10.4 ENE 32 39 17 21 1015.7 1015.7 0.0
21/10:00am 26.2 18.2 1.5 20 11.8 E 33 41 18 22 1015.9 1015.9 0.0
21/09:30am 25.7 17.4 2.4 22 11.3 E 35 41 19 22 1015.7 1015.7 0.0
21/09:00am 24.9 17.0 2.4 23 10.8 E 33 41 18 22 1015.6 1015.6 0.0
21/08:30am 24.2 17.3 2.4 24 10.4 E 28 33 15 18 1015.7 1015.7 0.0
21/08:00am 23.1 15.4 0.2 22 10.4 E 30 35 16 19 1015.4 1015.4 0.0
21/07:30am 21.4 15.1 1.7 27 9.1 E 24 28 13 15 1015.2 1015.2 0.0
21/07:00am 19.4 14.1 3.2 34 7.6 E 20 22 11 12 1014.9 1014.9 0.0
21/06:30am 18.1 13.2 5.3 43 6.2 E 20 22 11 12 1014.5 1014.5 0.0
21/06:00am 18.2 13.8 6.7 47 5.7 E 19 20 10 11 1014.0 1014.0 0.0
21/05:30am 17.8 14.9 10.9 64 3.7 E 17 19 9 10 1013.6 1013.6 0.0
21/05:00am 18.1 15.6 12.3 69 3.2 E 17 17 9 9 1013.5 1013.5 0.0
21/04:30am 18.1 16.2 13.0 72 2.9 E 15 17 8 9 1013.3 1013.3 0.0
21/04:00am 17.9 15.9 12.8 72 2.8 E 15 17 8 9 1013.2 1013.2 0.0
21/03:30am 16.9 15.3 11.4 70 3.0 E 11 13 6 7 1013.3 1013.3 0.0
21/03:00am 17.8 15.9 11.8 68 3.3 E 13 15 7 8 1013.4 1013.4 0.0
21/02:30am 16.7 15.4 9.9 64 3.6 ESE 7 9 4 5 1013.6 1013.6 0.0
21/02:00am 17.3 17.4 10.0 62 3.9 CALM 0 0 0 0 1013.7 1013.7 0.0
21/01:30am 17.9 17.8 10.8 63 3.8 SE 2 6 1 3 1013.8 1013.8 0.0
21/01:00am 17.9 17.9 11.2 65 3.6 SSE 2 6 1 3 1014.0 1014.0 0.0
21/12:30am 18.1 18.6 11.7 66 3.5 CALM 0 0 0 0 1014.3 1014.3 0.0
21/12:00am 18.9 19.7 12.4 66 3.6 CALM 0 0 0 0 1014.4 1014.4 0.0
 
Date/Time
WST
Temp
°C
App
Temp
°C
Dew
Point
°C
Rel
Hum
%
Delta-T
°C
Wind Press
QNH
hPa
Press
MSL
hPa
Rain since
9am
mm
Dir  Spd
km/h
Gust
km/h
Spd
kts
Gust
kts
20/11:30pm 19.2 20.0 12.5 65 3.7 CALM 0 0 0 0 1014.4 1014.4 0.0
20/11:00pm 19.8 20.6 12.6 63 4.0 CALM 0 0 0 0 1014.5 1014.5 0.0
20/10:30pm 19.6 19.3 12.6 64 3.9 SW 6 7 3 4 1014.4 1014.4 0.0
20/10:00pm 20.5 20.0 13.7 65 3.9 SW 9 11 5 6 1014.4 1014.4 0.0
20/09:30pm 20.6 20.7 14.5 68 3.6 SW 7 9 4 5 1014.5 1014.5 0.0
20/09:00pm 21.7 22.2 15.5 68 3.7 WSW 7 9 4 5 1014.4 1014.4 0.0
20/08:30pm 22.1 22.4 16.1 69 3.6 WSW 9 11 5 6 1014.2 1014.2 0.0
20/08:00pm 22.8 23.3 16.6 68 3.8 W 9 13 5 7 1014.0 1014.0 0.0
20/07:30pm 23.4 22.7 16.4 64 4.3 W 15 20 8 11 1013.8 1013.8 0.0
20/07:00pm 23.5 22.7 17.0 67 4.0 W 17 20 9 11 1013.4 1013.4 0.0
20/06:30pm 24.3 23.7 17.5 66 4.2 W 17 19 9 10 1013.2 1013.2 0.0
20/06:00pm 27.0 26.4 13.4 43 8.0 NNW 9 17 5 9 1012.9 1012.9 0.0
20/05:30pm 27.8 25.3 9.6 32 10.1 N 13 17 7 9 1012.6 1012.6 0.0
20/05:00pm 28.3 25.0 9.6 31 10.4 NNE 17 20 9 11 1012.3 1012.3 0.0
20/04:30pm 28.5 24.9 9.7 31 10.5 NNE 19 24 10 13 1012.1 1012.1 0.0
20/04:00pm 28.8 24.5 9.5 30 10.8 NE 22 28 12 15 1012.0 1012.0 0.0
20/03:30pm 29.1 24.5 9.8 30 10.8 NE 24 30 13 16 1012.2 1012.2 0.0
20/03:00pm 29.1 25.0 11.6 33 10.1 NNE 24 30 13 16 1012.5 1012.5 0.0
20/02:30pm 28.6 24.2 10.3 32 10.3 NE 24 33 13 18 1012.7 1012.7 0.0
20/02:00pm 29.6 25.3 12.1 34 10.2 NE 26 33 14 18 1013.1 1013.1 0.0
20/01:30pm 28.6 24.2 11.6 34 9.8 NE 26 30 14 16 1013.6 1013.6 0.0
20/01:00pm 29.2 25.1 11.3 33 10.3 NE 24 30 13 16 1014.0 1014.0 0.0
20/12:30pm 27.8 23.7 11.4 36 9.4 NE 24 30 13 16 1014.5 1014.5 0.0
20/12:00pm 28.3 24.4 10.9 34 9.9 NE 22 28 12 15 1014.9 1014.9 0.0
20/11:30am 28.6 25.1 10.3 32 10.3 NE 19 26 10 14 1015.3 1015.3 0.0
20/11:00am 28.2 24.5 9.5 31 10.4 ENE 19 24 10 13 1016.0 1016.0 0.0
20/10:30am 28.1 24.3 8.9 30 10.6 ENE 19 26 10 14 1016.2 1016.2 0.0
20/10:00am 27.0 22.7 8.0 30 10.2 ESE 20 28 11 15 1016.4 1016.4 0.0
20/09:30am 26.7 22.4 7.7 30 10.2 ESE 20 28 11 15 1016.4 1016.4 0.0
20/09:00am 25.5 21.7 7.6 32 9.5 ESE 17 24 9 13 1016.5 1016.5 0.0
20/08:30am 23.8 19.8 6.6 33 8.9 SSE 17 20 9 11 1016.4 1016.4 0.0
20/08:00am 22.4 19.1 6.6 36 8.1 S 13 17 7 9 1016.3 1016.3 0.0
20/07:30am 19.6 17.6 8.6 49 5.7 SW 9 11 5 6 1016.2 1016.2 0.0
20/07:00am 19.1 16.8 9.0 52 5.3 WSW 11 11 6 6 1015.9 1015.9 0.0
20/06:30am 19.0 16.3 8.9 52 5.3 WSW 13 13 7 7 1015.6 1015.6 0.0
20/06:00am 18.6 16.6 8.8 53 5.1 WSW 9 13 5 7 1015.2 1015.2 0.0
20/05:30am 18.5 15.6 8.2 51 5.3 WSW 13 13 7 7 1015.0 1015.0 0.0
20/05:00am 19.0 16.1 8.1 49 5.6 SW 13 15 7 8 1014.9 1014.9 0.0
20/04:30am 19.3 16.4 8.0 48 5.8 WSW 13 15 7 8 1014.9 1014.9 0.0
20/04:00am 19.6 16.4 8.6 49 5.7 WSW 15 19 8 10 1014.8 1014.8 0.0
20/03:30am 20.0 16.1 8.7 48 5.9 SW 19 22 10 12 1014.8 1014.8 0.0
20/03:00am 19.9 16.6 9.5 51 5.5 WSW 17 19 9 10 1014.8 1014.8 0.0
20/02:30am 20.1 16.8 9.7 51 5.6 WSW 17 19 9 10 1014.8 1014.8 0.0
20/02:00am 20.6 17.4 10.1 51 5.7 WSW 17 20 9 11 1014.8 1014.8 0.0
20/01:30am 21.1 17.7 10.6 51 5.7 WSW 19 20 10 11 1014.8 1014.8 0.0
20/01:00am 21.4 17.8 10.6 50 5.9 WSW 20 26 11 14 1014.8 1014.8 0.0
20/12:30am 21.7 18.1 10.5 49 6.1 WSW 20 26 11 14 1014.9 1014.9 0.0
20/12:00am 21.9 18.5 11.3 51 5.9 WSW 20 26 11 14 1015.0 1015.0 0.0
 
Date/Time
WST
Temp
°C
App
Temp
°C
Dew
Point
°C
Rel
Hum
%
Delta-T
°C
Wind Press
QNH
hPa
Press
MSL
hPa
Rain since
9am
mm
Dir  Spd
km/h
Gust
km/h
Spd
kts
Gust
kts
19/11:30pm 22.2 18.4 11.3 50 6.1 WSW 22 26 12 14 1015.2 1015.2 0.0
19/11:00pm 22.5 19.1 11.3 49 6.2 WSW 20 24 11 13 1015.3 1015.3 0.0
19/10:30pm 22.8 19.6 11.8 50 6.2 WSW 20 24 11 13 1015.4 1015.4 0.0
19/10:00pm 23.0 19.7 12.9 53 5.8 W 22 28 12 15 1015.4 1015.4 0.0
19/09:30pm 22.9 20.4 15.2 62 4.6 W 22 28 12 15 1015.2 1015.2 0.0
19/09:00pm 22.8 20.4 15.4 63 4.4 W 22 28 12 15 1015.0 1015.0 0.0
19/08:30pm 22.9 20.0 16.2 66 4.1 W 26 30 14 16 1014.8 1014.8 0.0
19/08:00pm 23.0 20.2 16.3 66 4.1 W 26 32 14 17 1014.6 1014.6 0.0
19/07:30pm 23.3 20.1 16.4 65 4.2 W 28 33 15 18 1014.2 1014.2 0.0

Other Formats:

Comma delimited format used in spreadsheet applications
http://www.bom.gov.au/fwo/IDW60801/IDW60801.95307.axf

JavaScript Object Notation format (JSON) in row-major order
http://www.bom.gov.au/fwo/IDW60801/IDW60801.95307.json